Time;durP1;ratioP1;P1;durP2;ratioP2;P2;SDS_P1;SDS_P2;PMS_P1;PMS_P2;Temp;Humidity;BMP_temperature;BMP_pressure;BME280_temperature;BME280_humidity;BME280_pressure;Samples;Min_cycle;Max_cycle;Signal;HPM_P1;HPM_P2
2021/03/22 00:00:44;;;;;;;1.20;1.00;;;4.70;98.00;;;;;;5050891;28;20464;-66
2021/03/22 00:03:13;;;;;;;1.20;1.00;;;4.70;98.00;;;;;;5053139;28;20454;-66
2021/03/22 00:05:40;;;;;;;1.40;1.30;;;4.70;98.00;;;;;;5051116;28;20475;-66
2021/03/22 00:08:07;;;;;;;1.47;1.30;;;4.60;98.00;;;;;;5053134;28;20461;-66
2021/03/22 00:10:35;;;;;;;3.70;2.20;;;4.50;98.00;;;;;;5050740;28;20552;-66
2021/03/22 00:13:02;;;;;;;1.20;1.00;;;4.50;98.00;;;;;;5052947;28;20530;-66
2021/03/22 00:15:31;;;;;;;1.20;1.10;;;4.60;98.00;;;;;;5050623;28;20462;-66
2021/03/22 00:18:00;;;;;;;2.23;1.40;;;4.50;98.00;;;;;;5052908;28;20455;-66
2021/03/22 00:20:28;;;;;;;1.50;1.23;;;4.40;98.00;;;;;;5050661;28;20454;-66
2021/03/22 00:22:55;;;;;;;2.47;1.30;;;4.30;98.00;;;;;;5052795;28;20508;-66
2021/03/22 00:25:22;;;;;;;1.20;1.20;;;4.30;98.00;;;;;;5050243;28;20546;-66
2021/03/22 00:27:49;;;;;;;2.20;1.33;;;4.40;98.00;;;;;;5052709;28;20830;-66
2021/03/22 00:30:20;;;;;;;1.57;1.27;;;4.40;98.00;;;;;;5050074;28;20515;-66
2021/03/22 00:32:47;;;;;;;1.20;1.10;;;4.40;98.00;;;;;;5052582;28;20465;-66
2021/03/22 00:35:14;;;;;;;1.50;1.20;;;4.50;98.00;;;;;;5050043;28;20470;-66
2021/03/22 00:37:42;;;;;;;1.20;0.90;;;4.50;98.00;;;;;;5051153;28;20454;-66
2021/03/22 00:40:10;;;;;;;1.97;1.57;;;4.50;98.00;;;;;;5049521;28;20483;-66
2021/03/22 00:42:42;;;;;;;1.93;1.40;;;4.50;98.00;;;;;;5052162;28;20452;-66
2021/03/22 00:45:12;;;;;;;2.17;1.50;;;4.50;98.00;;;;;;5049420;28;20475;-66
2021/03/22 00:47:39;;;;;;;1.20;0.90;;;4.60;98.00;;;;;;5052116;28;20484;-66
2021/03/22 00:50:09;;;;;;;1.20;1.03;;;4.60;98.00;;;;;;5049608;28;20463;-66
2021/03/22 00:52:36;;;;;;;1.20;1.13;;;4.60;98.00;;;;;;5052084;28;21013;-66
2021/03/22 00:55:06;;;;;;;1.20;1.10;;;4.60;98.00;;;;;;5049376;28;20474;-66
2021/03/22 00:57:32;;;;;;;1.20;1.00;;;4.60;98.00;;;;;;5051877;28;20484;-66
2021/03/22 00:59:59;;;;;;;1.30;1.27;;;4.60;98.00;;;;;;5048986;28;20575;-66
2021/03/22 01:02:25;;;;;;;1.47;1.20;;;4.60;98.00;;;;;;5051723;28;20467;-66
2021/03/22 01:04:52;;;;;;;1.20;1.00;;;4.70;98.00;;;;;;5049263;28;20544;-66
2021/03/22 01:07:18;;;;;;;1.20;1.00;;;4.70;98.00;;;;;;5051595;28;20469;-66
2021/03/22 01:09:45;;;;;;;1.20;1.00;;;4.70;98.00;;;;;;5049328;28;20515;-66
2021/03/22 01:12:13;;;;;;;2.23;1.13;;;4.80;98.00;;;;;;5051885;28;20458;-66
2021/03/22 01:14:40;;;;;;;1.77;1.17;;;4.80;98.00;;;;;;5048169;28;20867;-66
2021/03/22 01:17:08;;;;;;;1.40;1.30;;;4.90;98.00;;;;;;5051787;28;20498;-66
2021/03/22 01:19:34;;;;;;;1.60;1.13;;;4.80;98.00;;;;;;5048994;28;20579;-66
2021/03/22 01:22:03;;;;;;;1.20;1.00;;;4.80;98.00;;;;;;5051575;28;20460;-66
2021/03/22 01:24:32;;;;;;;3.63;1.67;;;4.90;98.00;;;;;;5048864;28;20906;-66
2021/03/22 01:27:01;;;;;;;1.20;1.00;;;4.90;98.00;;;;;;5051496;28;20967;-66
2021/03/22 01:29:31;;;;;;;1.20;1.10;;;4.80;98.00;;;;;;5048417;28;20458;-66
2021/03/22 01:31:59;;;;;;;1.50;1.10;;;4.90;98.00;;;;;;5050768;28;20848;-66
2021/03/22 01:34:28;;;;;;;1.20;1.00;;;4.90;98.00;;;;;;5048094;28;20469;-66
2021/03/22 01:36:55;;;;;;;1.73;1.27;;;4.70;98.00;;;;;;5050843;28;20484;-66
2021/03/22 01:39:25;;;;;;;1.20;1.00;;;4.80;98.00;;;;;;5048535;28;20524;-66
2021/03/22 01:42:06;;;;;;;1.20;0.90;;;4.70;98.00;;;;;;5051239;28;20451;-66
2021/03/22 01:44:36;;;;;;;1.67;1.23;;;4.70;98.00;;;;;;5048518;28;21028;-66
2021/03/22 01:47:06;;;;;;;1.20;1.00;;;4.60;98.00;;;;;;5051176;28;20541;-66
2021/03/22 01:49:39;;;;;;;1.20;1.10;;;4.40;98.00;;;;;;5048297;28;20494;-66
2021/03/22 01:52:07;;;;;;;2.90;1.60;;;4.40;98.00;;;;;;5051107;28;20488;-66
2021/03/22 01:54:34;;;;;;;3.10;2.17;;;4.40;98.00;;;;;;5048432;28;20512;-66
2021/03/22 01:57:30;;;;;;;2.00;1.37;;;4.40;98.00;;;;;;5049707;28;20463;-66
2021/03/22 02:00:14;;;;;;;1.37;1.10;;;4.50;98.00;;;;;;5048127;28;20995;-66
2021/03/22 02:02:43;;;;;;;1.20;1.00;;;4.50;98.00;;;;;;5049586;28;20468;-66
2021/03/22 02:05:13;;;;;;;1.80;1.53;;;4.50;98.00;;;;;;5048692;28;20458;-66
2021/03/22 02:07:40;;;;;;;1.30;1.27;;;4.40;98.00;;;;;;5051505;28;20450;-66
2021/03/22 02:10:09;;;;;;;1.20;1.00;;;4.40;98.00;;;;;;5047000;28;20966;-66
2021/03/22 02:12:37;;;;;;;1.40;1.20;;;4.30;98.00;;;;;;5053596;28;20463;-66
2021/03/22 02:15:06;;;;;;;4.20;1.53;;;4.20;98.00;;;;;;5052511;28;20820;-66
2021/03/22 02:17:41;;;;;;;1.20;1.00;;;4.20;98.00;;;;;;5054829;28;20465;-66
2021/03/22 02:20:39;;;;;;;4.50;1.60;;;4.10;98.00;;;;;;5052252;28;20534;-66
2021/03/22 02:23:45;;;;;;;1.20;1.00;;;4.10;98.00;;;;;;5053484;28;20492;-66
2021/03/22 02:26:31;;;;;;;1.30;1.00;;;4.20;98.00;;;;;;5001810;28;20986;-66
2021/03/22 02:29:22;;;;;;;1.20;1.00;;;4.10;98.00;;;;;;5054770;28;20465;-66
2021/03/22 02:32:32;;;;;;;1.37;1.00;;;4.00;98.00;;;;;;5054668;28;20489;-66
2021/03/22 02:35:07;;;;;;;1.30;1.07;;;4.00;98.00;;;;;;5052083;28;20469;-66
2021/03/22 02:37:56;;;;;;;1.40;1.10;;;4.00;98.00;;;;;;5054483;28;20544;-66
2021/03/22 02:40:30;;;;;;;1.20;1.00;;;4.10;98.00;;;;;;5051916;28;20633;-66
2021/03/22 02:42:58;;;;;;;1.20;1.00;;;4.30;98.00;;;;;;5054354;28;20462;-66
2021/03/22 02:45:28;;;;;;;1.20;1.00;;;4.40;98.00;;;;;;5052007;28;20458;-66
2021/03/22 02:47:55;;;;;;;1.20;1.10;;;4.50;98.00;;;;;;5054409;28;20463;-66
2021/03/22 02:50:26;;;;;;;1.53;1.10;;;4.40;98.00;;;;;;5050315;28;20808;-66
2021/03/22 02:53:26;;;;;;;1.20;1.00;;;4.40;98.00;;;;;;5054288;28;20459;-66
2021/03/22 02:56:06;;;;;;;1.20;1.10;;;4.40;98.00;;;;;;5018278;28;20462;-66
2021/03/22 02:58:40;;;;;;;4.23;1.53;;;4.30;98.00;;;;;;5054005;28;20477;-66
2021/03/22 03:01:12;;;;;;;1.30;1.20;;;4.20;98.00;;;;;;5051828;28;20465;-66
2021/03/22 03:03:38;;;;;;;1.20;1.00;;;4.30;98.00;;;;;;5054063;28;20493;-66
2021/03/22 03:06:07;;;;;;;1.20;0.90;;;4.30;98.00;;;;;;5051479;28;20467;-66
2021/03/22 03:08:40;;;;;;;1.20;0.90;;;4.30;98.00;;;;;;5053759;28;20507;-66
2021/03/22 03:11:07;;;;;;;1.20;0.90;;;4.20;98.00;;;;;;5051706;28;20481;-66
2021/03/22 03:13:34;;;;;;;3.07;1.60;;;4.20;98.00;;;;;;5054178;28;20465;-66
2021/03/22 03:16:02;;;;;;;1.23;1.00;;;4.30;98.00;;;;;;5051610;28;20455;-66
2021/03/22 03:18:29;;;;;;;1.50;1.30;;;4.30;98.00;;;;;;5052416;28;20490;-66
2021/03/22 03:20:58;;;;;;;1.40;1.27;;;4.30;98.00;;;;;;5051584;28;21011;-66
2021/03/22 03:23:27;;;;;;;1.40;1.30;;;4.40;98.00;;;;;;5053018;28;20461;-66
2021/03/22 03:25:53;;;;;;;1.50;1.13;;;4.40;98.00;;;;;;5051634;28;20469;-66
2021/03/22 03:28:20;;;;;;;1.20;0.90;;;4.50;98.00;;;;;;5053740;28;20468;-66
2021/03/22 03:30:48;;;;;;;1.20;0.90;;;4.50;98.00;;;;;;5051253;28;20459;-66
2021/03/22 03:33:14;;;;;;;3.20;2.13;;;4.60;98.00;;;;;;5053480;28;20467;-66
2021/03/22 03:35:46;;;;;;;1.40;1.10;;;4.60;98.00;;;;;;5050701;28;20458;-66
2021/03/22 03:38:13;;;;;;;1.40;1.10;;;4.40;98.00;;;;;;5053365;28;20989;-66
2021/03/22 03:40:42;;;;;;;1.20;0.90;;;4.40;98.00;;;;;;5051056;28;20934;-66
2021/03/22 03:43:09;;;;;;;1.30;1.10;;;4.40;98.00;;;;;;5053308;28;20467;-66
2021/03/22 03:45:40;;;;;;;1.20;1.00;;;4.40;98.00;;;;;;5050814;28;20937;-66
2021/03/22 03:48:08;;;;;;;1.40;1.40;;;4.40;98.00;;;;;;5051888;28;20452;-66
2021/03/22 03:50:35;;;;;;;37.27;2.07;;;4.30;98.00;;;;;;5050288;28;20456;-65
2021/03/22 03:53:02;;;;;;;1.20;1.00;;;4.30;98.00;;;;;;5053307;28;20454;-65
2021/03/22 03:55:30;;;;;;;1.40;1.33;;;4.30;98.00;;;;;;5050624;28;20459;-66
2021/03/22 03:57:58;;;;;;;1.20;1.10;;;4.30;98.00;;;;;;5053293;28;20449;-66
2021/03/22 04:00:27;;;;;;;1.20;0.93;;;4.40;98.00;;;;;;5050638;28;20540;-66
2021/03/22 04:02:54;;;;;;;1.20;0.90;;;4.40;98.00;;;;;;5052883;28;20459;-66
2021/03/22 04:05:23;;;;;;;1.20;0.90;;;4.40;98.00;;;;;;5050471;28;20450;-65
2021/03/22 04:07:49;;;;;;;1.53;1.10;;;4.30;98.00;;;;;;5052847;28;20502;-66
2021/03/22 04:10:17;;;;;;;1.27;1.07;;;4.20;98.00;;;;;;5050458;28;20909;-66
2021/03/22 04:12:44;;;;;;;1.20;1.20;;;4.20;98.00;;;;;;5052662;28;20473;-66
2021/03/22 04:15:15;;;;;;;1.30;1.07;;;4.10;98.00;;;;;;5050372;28;20467;-66
2021/03/22 04:17:43;;;;;;;1.20;1.00;;;4.00;98.00;;;;;;5052594;28;20456;-66
2021/03/22 04:20:11;;;;;;;1.50;1.03;;;4.00;98.00;;;;;;5050481;28;20481;-66
2021/03/22 04:22:38;;;;;;;1.20;1.03;;;4.00;98.00;;;;;;5051350;28;20450;-66
2021/03/22 04:25:05;;;;;;;1.40;1.20;;;4.00;98.00;;;;;;5050304;28;20462;-66
2021/03/22 04:27:32;;;;;;;2.07;1.20;;;4.00;98.00;;;;;;5052121;28;20463;-66
2021/03/22 04:30:00;;;;;;;1.20;1.00;;;3.90;98.00;;;;;;5050344;28;20488;-66
2021/03/22 04:32:27;;;;;;;1.47;1.20;;;3.80;98.00;;;;;;5052463;28;21062;-66
2021/03/22 04:34:53;;;;;;;1.20;1.00;;;3.80;98.00;;;;;;5049317;28;20453;-66
2021/03/22 04:37:20;;;;;;;1.20;1.00;;;3.70;98.00;;;;;;5052489;28;20817;-66
2021/03/22 04:39:47;;;;;;;1.20;0.90;;;3.80;98.00;;;;;;5050557;28;20491;-66
2021/03/22 04:42:13;;;;;;;1.50;1.30;;;4.00;98.00;;;;;;5052428;28;20451;-66
2021/03/22 04:44:40;;;;;;;1.20;0.90;;;4.10;98.00;;;;;;5049952;28;20555;-66
2021/03/22 04:47:07;;;;;;;1.20;1.00;;;4.30;98.00;;;;;;5052243;28;20865;-66
2021/03/22 04:49:34;;;;;;;1.20;1.00;;;4.30;98.00;;;;;;5050040;28;20455;-66
2021/03/22 04:52:01;;;;;;;2.40;1.40;;;4.30;98.00;;;;;;5052014;28;20470;-66
2021/03/22 04:54:29;;;;;;;1.20;1.00;;;4.20;98.00;;;;;;5051521;28;20497;-66
2021/03/22 04:56:55;;;;;;;1.20;0.90;;;4.00;98.00;;;;;;5049070;28;20501;-65
2021/03/22 04:59:23;;;;;;;1.20;0.90;;;4.00;98.00;;;;;;5051755;28;20482;-66
2021/03/22 05:01:50;;;;;;;1.40;1.00;;;4.00;98.00;;;;;;5049478;28;20956;-66
2021/03/22 05:04:16;;;;;;;2.40;1.10;;;4.00;98.00;;;;;;5052091;28;20466;-66
2021/03/22 05:06:44;;;;;;;1.20;1.00;;;4.00;98.00;;;;;;5049505;28;20478;-66
2021/03/22 05:09:11;;;;;;;1.20;1.00;;;4.00;98.00;;;;;;5051831;28;20455;-66
2021/03/22 05:11:37;;;;;;;1.20;0.90;;;3.90;98.00;;;;;;5048037;28;20451;-66
2021/03/22 05:14:04;;;;;;;1.20;0.90;;;3.80;98.00;;;;;;5051730;28;20531;-66
2021/03/22 05:16:30;;;;;;;1.20;0.90;;;3.80;98.00;;;;;;5049287;28;20458;-66
2021/03/22 05:18:57;;;;;;;1.20;0.90;;;3.70;98.00;;;;;;5051539;28;20485;-66
2021/03/22 05:21:24;;;;;;;1.20;1.10;;;3.80;98.00;;;;;;5048191;28;20465;-66
2021/03/22 05:23:51;;;;;;;1.20;1.00;;;3.90;98.00;;;;;;5051417;28;20462;-66
2021/03/22 05:26:17;;;;;;;1.20;1.00;;;3.90;98.00;;;;;;5049454;28;20801;-66
2021/03/22 05:28:44;;;;;;;1.20;0.90;;;3.90;98.00;;;;;;5051334;28;20592;-65
2021/03/22 05:31:12;;;;;;;1.20;0.90;;;3.90;98.00;;;;;;5049051;28;20840;-66
2021/03/22 05:33:39;;;;;;;1.70;1.03;;;3.90;98.00;;;;;;5051267;28;20515;-66
2021/03/22 05:36:06;;;;;;;1.20;1.00;;;3.90;98.00;;;;;;5048969;28;20909;-66
2021/03/22 05:38:34;;;;;;;1.20;0.90;;;4.00;98.00;;;;;;5051141;28;20459;-65
2021/03/22 05:41:05;;;;;;;1.20;1.00;;;4.00;98.00;;;;;;5048693;28;20458;-66
2021/03/22 05:43:53;;;;;;;1.37;1.13;;;4.20;98.00;;;;;;5050659;28;20478;-66
2021/03/22 05:46:40;;;;;;;1.90;1.10;;;4.20;98.00;;;;;;5049024;28;20461;-65
2021/03/22 05:49:28;;;;;;;1.37;1.00;;;4.30;98.00;;;;;;5051267;28;20457;-66
2021/03/22 05:52:11;;;;;;;1.20;0.90;;;4.20;98.00;;;;;;5049037;28;20459;-66
2021/03/22 05:55:00;;;;;;;1.20;1.00;;;4.10;98.00;;;;;;5048829;28;20872;-66
2021/03/22 05:57:42;;;;;;;1.20;1.00;;;4.00;98.00;;;;;;5051438;28;20520;-65
2021/03/22 06:00:26;;;;;;;1.20;0.90;;;4.10;98.00;;;;;;5048194;28;20618;-66
2021/03/22 06:03:01;;;;;;;1.20;0.90;;;4.10;98.00;;;;;;5051161;28;20491;-66
2021/03/22 06:05:36;;;;;;;1.20;0.93;;;4.20;98.00;;;;;;5048870;28;20517;-66
2021/03/22 06:08:23;;;;;;;1.20;1.03;;;4.30;98.00;;;;;;5051231;28;20477;-66
2021/03/22 06:10:53;;;;;;;1.20;0.90;;;4.40;98.00;;;;;;5048687;28;20592;-66
2021/03/22 06:13:26;;;;;;;1.80;1.73;;;4.30;98.00;;;;;;5051050;28;20494;-66
2021/03/22 06:15:58;;;;;;;2.60;1.10;;;4.30;98.00;;;;;;5048789;28;20549;-66
2021/03/22 06:18:30;;;;;;;1.20;0.90;;;4.40;98.00;;;;;;5050871;28;20458;-66
2021/03/22 06:21:00;;;;;;;1.30;1.10;;;4.40;98.00;;;;;;5048440;28;20470;-66
2021/03/22 06:23:35;;;;;;;1.80;1.10;;;4.40;98.00;;;;;;5051137;28;20466;-66
2021/03/22 06:26:02;;;;;;;1.70;1.00;;;4.30;98.00;;;;;;5048617;28;20473;-66
2021/03/22 06:28:32;;;;;;;1.20;1.00;;;4.50;98.00;;;;;;5050947;28;20446;-66
2021/03/22 06:31:05;;;;;;;1.73;1.50;;;4.50;98.00;;;;;;5048428;28;20463;-66
2021/03/22 06:33:35;;;;;;;1.93;1.10;;;4.50;98.00;;;;;;5050702;28;20455;-66
2021/03/22 06:36:03;;;;;;;1.20;1.00;;;4.70;98.00;;;;;;5048358;28;20458;-66
2021/03/22 06:38:29;;;;;;;1.20;0.90;;;4.80;98.00;;;;;;5050773;28;20458;-66
2021/03/22 06:40:56;;;;;;;1.20;1.00;;;4.80;98.00;;;;;;5048264;28;20508;-66
2021/03/22 06:43:24;;;;;;;1.20;1.00;;;4.90;98.00;;;;;;5050555;28;20978;-65
2021/03/22 06:45:53;;;;;;;1.20;1.00;;;5.00;98.00;;;;;;5047945;28;20485;-66
2021/03/22 06:48:26;;;;;;;1.80;1.10;;;5.10;97.50;;;;;;5050720;28;20454;-65
2021/03/22 06:51:10;;;;;;;1.20;0.90;;;5.10;98.00;;;;;;5046764;28;20541;-66
2021/03/22 06:53:39;;;;;;;1.20;0.90;;;5.10;97.90;;;;;;5049983;28;20469;-65
2021/03/22 06:56:15;;;;;;;1.63;1.17;;;5.10;97.90;;;;;;5047693;28;20454;-65
2021/03/22 06:58:42;;;;;;;1.20;0.90;;;5.10;97.20;;;;;;5052571;28;20940;-66
2021/03/22 07:01:26;;;;;;;2.17;1.33;;;5.10;97.70;;;;;;5052391;28;20791;-66
2021/03/22 07:03:53;;;;;;;1.20;0.90;;;5.10;98.00;;;;;;5053237;28;20552;-65
2021/03/22 07:06:22;;;;;;;1.20;0.93;;;5.10;97.30;;;;;;5051766;28;20483;-65
2021/03/22 07:08:49;;;;;;;1.37;1.10;;;5.10;98.00;;;;;;5054309;28;20954;-65
2021/03/22 07:11:18;;;;;;;1.77;1.60;;;5.10;97.90;;;;;;5051581;28;20461;-65
2021/03/22 07:13:55;;;;;;;1.20;0.90;;;5.20;97.80;;;;;;5053944;28;20467;-65
2021/03/22 07:16:24;;;;;;;1.20;0.90;;;5.20;97.60;;;;;;5051546;28;20511;-65
2021/03/22 07:19:08;;;;;;;1.20;0.90;;;5.20;97.80;;;;;;5053735;28;20487;-65
2021/03/22 07:21:46;;;;;;;1.30;1.10;;;5.30;97.80;;;;;;5049903;28;20453;-65
2021/03/22 07:24:21;;;;;;;1.20;1.03;;;5.30;97.50;;;;;;5053832;28;20470;-65
2021/03/22 07:26:59;;;;;;;1.20;0.90;;;5.40;97.60;;;;;;5049893;28;20830;-65
2021/03/22 07:29:56;;;;;;;1.20;0.90;;;5.30;97.10;;;;;;5052223;28;20465;-65
2021/03/22 07:33:00;;;;;;;4.60;1.30;;;5.20;97.70;;;;;;5022517;28;20498;-65
2021/03/22 07:35:59;;;;;;;1.20;0.93;;;5.30;97.40;;;;;;5024812;28;20467;-65
2021/03/22 07:38:49;;;;;;;1.20;0.90;;;5.30;97.80;;;;;;5052996;28;20487;-66
2021/03/22 07:41:23;;;;;;;2.50;1.13;;;5.30;97.70;;;;;;5050362;28;20454;-65
2021/03/22 07:44:11;;;;;;;1.30;1.03;;;5.30;98.00;;;;;;5052157;28;20477;-65
2021/03/22 07:46:52;;;;;;;1.67;1.10;;;5.40;98.00;;;;;;5051146;28;20462;-65
2021/03/22 07:49:32;;;;;;;1.30;1.10;;;5.40;98.00;;;;;;5053841;28;20509;-65
2021/03/22 07:52:19;;;;;;;1.20;0.90;;;5.50;97.30;;;;;;5051141;28;20470;-65
2021/03/22 07:55:08;;;;;;;1.20;1.00;;;5.50;97.30;;;;;;5053085;28;20462;-65
2021/03/22 07:57:42;;;;;;;2.13;1.30;;;5.50;96.80;;;;;;5053304;28;20486;-65
2021/03/22 08:00:19;;;;;;;1.20;0.90;;;5.40;97.10;;;;;;5050733;28;20910;-65
2021/03/22 08:03:19;;;;;;;1.20;0.90;;;5.30;97.50;;;;;;5035401;28;20459;-65
2021/03/22 08:06:00;;;;;;;1.20;1.00;;;5.40;98.00;;;;;;5046294;28;20937;-65
2021/03/22 08:08:34;;;;;;;1.40;1.23;;;5.50;98.00;;;;;;5052912;28;20465;-64
2021/03/22 08:11:07;;;;;;;1.20;0.90;;;5.40;97.70;;;;;;5049020;28;20953;-65
2021/03/22 08:13:43;;;;;;;1.20;0.90;;;5.40;98.00;;;;;;5052807;28;20876;-65
2021/03/22 08:16:33;;;;;;;1.40;1.00;;;7.00;98.00;;;;;;5050596;28;20483;-66
2021/03/22 08:19:05;;;;;;;1.20;1.00;;;8.10;93.20;;;;;;5052789;28;20488;-66
2021/03/22 08:21:39;;;;;;;1.60;1.07;;;8.10;90.50;;;;;;5050246;28;20484;-66
2021/03/22 08:24:30;;;;;;;1.63;1.20;;;7.80;90.50;;;;;;5051915;28;20994;-66
2021/03/22 08:27:02;;;;;;;1.20;1.00;;;7.40;92.00;;;;;;5048758;28;20453;-66
2021/03/22 08:29:31;;;;;;;1.20;1.00;;;7.10;92.20;;;;;;5051873;28;20454;-65
2021/03/22 08:32:06;;;;;;;1.20;1.00;;;6.60;93.40;;;;;;5049783;28;20447;-64
2021/03/22 08:34:40;;;;;;;1.20;1.00;;;6.50;94.60;;;;;;5052117;28;20512;-64
2021/03/22 08:37:13;;;;;;;1.20;1.00;;;6.30;93.90;;;;;;5049110;28;20470;-64
2021/03/22 08:39:46;;;;;;;1.20;0.90;;;6.30;94.50;;;;;;5051761;28;20533;-66
2021/03/22 08:42:19;;;;;;;1.20;1.00;;;6.30;94.90;;;;;;5049370;28;20515;-66
2021/03/22 08:44:54;;;;;;;1.20;0.90;;;6.20;95.70;;;;;;5051720;28;20474;-66
2021/03/22 08:47:35;;;;;;;1.20;1.00;;;6.10;95.90;;;;;;5051113;28;20883;-66
2021/03/22 08:50:04;;;;;;;1.20;1.00;;;6.00;96.20;;;;;;5049011;28;20458;-66
2021/03/22 08:52:35;;;;;;;1.20;1.10;;;5.90;96.90;;;;;;5051474;28;20535;-65
2021/03/22 08:55:07;;;;;;;3.10;1.87;;;5.80;97.90;;;;;;5049132;28;20463;-66
2021/03/22 08:57:39;;;;;;;1.20;0.90;;;5.80;98.00;;;;;;5051817;28;20482;-66
2021/03/22 09:00:11;;;;;;;1.47;1.10;;;5.90;98.00;;;;;;5048506;28;20525;-66
2021/03/22 09:02:39;;;;;;;1.20;1.00;;;5.90;98.00;;;;;;5050945;28;20520;-66
2021/03/22 09:05:22;;;;;;;4.90;1.20;;;5.90;98.00;;;;;;5049007;28;20517;-66
2021/03/22 09:07:48;;;;;;;1.20;1.00;;;6.10;98.00;;;;;;5050348;28;20831;-66
2021/03/22 09:10:38;;;;;;;1.20;0.90;;;6.20;97.40;;;;;;5048870;28;20500;-66
2021/03/22 09:13:25;;;;;;;1.47;1.10;;;6.30;97.20;;;;;;5065784;28;20456;-66
2021/03/22 09:16:37;;;;;;;1.20;1.00;;;6.40;97.50;;;;;;5048745;28;20486;-66
2021/03/22 09:19:37;;;;;;;1.20;1.00;;;6.50;96.50;;;;;;5040625;28;20482;-66
2021/03/22 09:22:51;;;;;;;1.20;1.00;;;6.70;96.10;;;;;;5048009;28;21372;-66
2021/03/22 09:25:54;;;;;;;1.20;0.90;;;6.70;95.40;;;;;;5048693;28;20464;-66
2021/03/22 09:28:44;;;;;;;1.20;1.00;;;6.60;95.60;;;;;;5050794;28;20559;-66
2021/03/22 09:31:38;;;;;;;1.20;1.00;;;6.60;95.70;;;;;;5048375;28;20510;-66
2021/03/22 09:34:49;;;;;;;1.20;1.00;;;6.30;97.30;;;;;;5050841;28;20970;-66
2021/03/22 09:37:50;;;;;;;1.20;1.00;;;6.30;97.60;;;;;;5048400;28;20808;-66
2021/03/22 09:40:56;;;;;;;1.20;1.03;;;6.40;98.00;;;;;;5048286;28;20499;-66
2021/03/22 09:43:41;;;;;;;1.20;1.00;;;6.40;98.00;;;;;;5050568;28;20877;-66
2021/03/22 09:46:33;;;;;;;1.20;0.90;;;6.60;98.00;;;;;;5048668;28;20451;-66
2021/03/22 09:49:14;;;;;;;1.20;1.00;;;6.70;98.00;;;;;;5065846;28;20495;-66
2021/03/22 09:51:50;;;;;;;1.20;1.10;;;6.80;98.00;;;;;;5048201;28;20466;-67
2021/03/22 09:54:31;;;;;;;1.20;1.00;;;6.80;97.10;;;;;;5050766;28;20538;-67
2021/03/22 09:57:42;;;;;;;1.20;1.00;;;6.60;97.10;;;;;;5048343;28;20832;-66
2021/03/22 10:00:48;;;;;;;1.20;1.03;;;6.60;98.00;;;;;;5028578;28;20963;-67
2021/03/22 10:03:50;;;;;;;1.20;0.90;;;6.60;98.00;;;;;;5050899;28;20614;-66
2021/03/22 10:06:54;;;;;;;1.20;1.00;;;6.60;98.00;;;;;;5021110;28;20474;-66
2021/03/22 10:09:26;;;;;;;1.20;1.00;;;6.40;98.00;;;;;;4987143;28;20545;-67
2021/03/22 10:11:55;;;;;;;1.20;0.90;;;6.40;98.00;;;;;;5048059;28;20512;-66
2021/03/22 10:14:30;;;;;;;1.20;1.00;;;6.40;98.00;;;;;;5049543;28;20517;-66
2021/03/22 10:16:59;;;;;;;1.20;1.00;;;6.40;98.00;;;;;;5048321;28;20474;-65
2021/03/22 10:19:28;;;;;;;1.20;1.00;;;6.40;98.00;;;;;;5065662;28;20515;-66
2021/03/22 10:21:58;;;;;;;1.20;1.00;;;6.40;98.00;;;;;;5048285;28;20471;-66
2021/03/22 10:24:36;;;;;;;1.20;1.00;;;6.50;98.00;;;;;;5050521;28;20937;-66
2021/03/22 10:27:18;;;;;;;1.20;1.00;;;6.50;98.00;;;;;;5062803;28;20833;-66
2021/03/22 10:29:45;;;;;;;1.33;1.13;;;6.50;98.00;;;;;;5050014;28;20482;-66
2021/03/22 10:32:23;;;;;;;2.43;1.40;;;6.50;98.00;;;;;;5048379;28;20478;-65
2021/03/22 10:34:52;;;;;;;1.20;1.00;;;6.50;98.00;;;;;;5054199;28;20489;-66
2021/03/22 10:37:22;;;;;;;1.30;1.30;;;6.50;98.00;;;;;;5052042;28;20457;-66
2021/03/22 10:39:51;;;;;;;1.20;0.90;;;6.50;98.00;;;;;;5053738;28;20487;-67
2021/03/22 10:42:23;;;;;;;1.20;0.90;;;6.60;98.00;;;;;;5052112;28;20463;-66
2021/03/22 10:44:57;;;;;;;1.20;0.90;;;6.60;97.20;;;;;;5053770;28;20490;-66
2021/03/22 10:47:29;;;;;;;1.30;1.10;;;6.60;97.60;;;;;;5064569;28;20964;-66
2021/03/22 10:50:12;;;;;;;1.63;1.10;;;6.60;97.50;;;;;;5053819;28;20459;-66
2021/03/22 10:52:40;;;;;;;1.20;1.20;;;6.60;97.10;;;;;;5053952;28;20457;-66
2021/03/22 10:55:24;;;;;;;1.20;1.00;;;6.60;97.00;;;;;;5052412;28;20454;-66
2021/03/22 10:57:50;;;;;;;1.20;1.00;;;6.50;96.30;;;;;;5053693;28;20517;-65
2021/03/22 11:00:29;;;;;;;1.20;0.93;;;6.50;97.40;;;;;;5051322;28;20487;-66
2021/03/22 11:02:58;;;;;;;1.20;1.00;;;6.60;97.10;;;;;;5053521;28;20939;-66
2021/03/22 11:05:30;;;;;;;1.53;1.10;;;6.70;96.90;;;;;;5051409;28;20461;-66
2021/03/22 11:08:01;;;;;;;1.20;1.00;;;6.70;96.30;;;;;;5053642;28;20461;-66
2021/03/22 11:10:28;;;;;;;2.33;1.73;;;6.80;97.60;;;;;;5051143;28;20460;-66
2021/03/22 11:12:54;;;;;;;1.20;0.90;;;6.90;95.80;;;;;;5053557;28;20467;-66
2021/03/22 11:15:25;;;;;;;1.20;1.00;;;6.90;95.70;;;;;;5051311;28;20538;-66
2021/03/22 11:17:59;;;;;;;1.20;0.90;;;7.00;94.70;;;;;;5053318;28;20497;-67
2021/03/22 11:20:28;;;;;;;1.20;1.00;;;7.00;94.70;;;;;;5050593;28;20628;-66
2021/03/22 11:23:14;;;;;;;1.20;1.00;;;6.80;95.20;;;;;;5053298;28;20465;-66
2021/03/22 11:25:41;;;;;;;1.40;1.20;;;6.70;95.50;;;;;;5050967;28;20461;-65
2021/03/22 11:28:25;;;;;;;2.00;1.50;;;6.80;96.30;;;;;;5053337;28;20464;-65
2021/03/22 11:30:59;;;;;;;1.20;0.93;;;6.80;95.20;;;;;;5050997;28;20464;-63
2021/03/22 11:33:31;;;;;;;1.20;1.00;;;6.80;95.20;;;;;;5053485;28;20478;-65
2021/03/22 11:36:08;;;;;;;1.20;1.00;;;6.80;95.40;;;;;;5050794;28;20511;-64
2021/03/22 11:38:49;;;;;;;1.47;1.20;;;6.80;95.50;;;;;;5053421;28;20456;-64
2021/03/22 11:41:31;;;;;;;1.20;1.00;;;6.80;95.50;;;;;;5050456;28;20490;-65
2021/03/22 11:44:04;;;;;;;2.43;1.00;;;6.60;95.80;;;;;;5052443;28;20459;-65
2021/03/22 11:46:31;;;;;;;1.20;0.90;;;6.40;96.20;;;;;;5050489;28;20454;-65
2021/03/22 11:48:59;;;;;;;1.20;0.90;;;6.40;96.70;;;;;;5052915;28;20458;-64
2021/03/22 11:51:25;;;;;;;1.33;1.17;;;6.40;96.90;;;;;;5050429;28;20465;-65
2021/03/22 11:54:00;;;;;;;1.20;1.00;;;6.30;97.80;;;;;;5052952;28;20873;-64
2021/03/22 11:56:29;;;;;;;1.20;0.90;;;6.50;97.70;;;;;;5050548;28;20501;-65
2021/03/22 11:59:16;;;;;;;1.20;0.97;;;6.50;98.00;;;;;;5052714;28;20542;-65
2021/03/22 12:01:43;;;;;;;1.20;0.90;;;6.70;96.40;;;;;;5050057;28;20453;-65
2021/03/22 12:04:19;;;;;;;2.40;1.47;;;6.70;96.20;;;;;;5052778;28;20475;-65
2021/03/22 12:07:05;;;;;;;1.20;1.10;;;6.80;96.20;;;;;;5049991;28;20457;-65
2021/03/22 12:09:33;;;;;;;1.20;1.00;;;6.80;95.60;;;;;;5052447;28;20543;-65
2021/03/22 12:12:01;;;;;;;1.20;1.00;;;7.00;95.40;;;;;;5049886;28;20461;-65
2021/03/22 12:14:28;;;;;;;1.40;1.17;;;7.20;96.00;;;;;;5052369;28;20461;-65
2021/03/22 12:17:03;;;;;;;1.20;0.90;;;7.30;94.20;;;;;;5049890;28;20493;-66
2021/03/22 12:19:36;;;;;;;1.30;1.20;;;7.30;94.20;;;;;;5051986;28;20832;-67
2021/03/22 12:22:05;;;;;;;1.20;0.90;;;7.40;93.70;;;;;;5049685;28;20517;-66
2021/03/22 12:24:31;;;;;;;1.90;1.57;;;7.40;93.40;;;;;;5052059;28;20455;-64
2021/03/22 12:26:59;;;;;;;1.40;1.27;;;7.30;93.00;;;;;;5049223;28;20458;-66
2021/03/22 12:29:26;;;;;;;1.63;1.53;;;7.20;93.60;;;;;;5051527;28;20460;-65
2021/03/22 12:31:53;;;;;;;1.50;1.47;;;7.30;94.10;;;;;;5064480;28;20503;-65
2021/03/22 12:34:23;;;;;;;1.20;0.90;;;7.30;93.30;;;;;;5052088;28;20875;-65
2021/03/22 12:36:52;;;;;;;1.20;1.00;;;7.20;94.10;;;;;;5049527;28;20461;-65
2021/03/22 12:39:21;;;;;;;3.53;1.57;;;7.20;93.70;;;;;;5051720;28;20459;-65
2021/03/22 12:41:50;;;;;;;1.20;1.00;;;7.20;93.50;;;;;;5049183;28;20538;-64
2021/03/22 12:44:18;;;;;;;1.20;0.90;;;7.20;93.50;;;;;;5051955;28;20470;-65
2021/03/22 12:46:45;;;;;;;1.20;1.00;;;7.20;93.80;;;;;;5048887;28;21221;-64
2021/03/22 12:49:14;;;;;;;1.20;1.00;;;7.10;94.70;;;;;;5051697;28;20460;-65
2021/03/22 12:51:41;;;;;;;1.20;1.00;;;7.00;94.00;;;;;;5048727;28;20453;-64
2021/03/22 12:54:10;;;;;;;1.20;1.00;;;6.90;93.90;;;;;;5051782;28;20549;-65
2021/03/22 12:56:37;;;;;;;1.20;1.20;;;6.90;95.60;;;;;;5048364;28;20555;-67
2021/03/22 12:59:05;;;;;;;1.30;1.00;;;7.00;95.70;;;;;;5051304;28;20980;-65
2021/03/22 13:01:32;;;;;;;1.20;1.00;;;7.10;95.40;;;;;;5048716;28;20537;-65
2021/03/22 13:03:58;;;;;;;1.30;1.30;;;7.30;95.30;;;;;;5051400;28;20953;-65
2021/03/22 13:06:26;;;;;;;1.23;1.00;;;7.40;94.80;;;;;;5063662;28;20463;-65
2021/03/22 13:08:53;;;;;;;1.20;1.00;;;7.30;94.70;;;;;;5051254;28;20463;-65
2021/03/22 13:11:24;;;;;;;1.43;1.20;;;7.20;94.80;;;;;;5048397;28;20904;-65
2021/03/22 13:13:51;;;;;;;1.20;1.00;;;7.40;94.10;;;;;;5050918;28;21011;-65
2021/03/22 13:16:19;;;;;;;1.20;1.00;;;7.20;93.70;;;;;;5048228;28;20457;-65
2021/03/22 13:18:46;;;;;;;1.40;1.20;;;7.10;95.10;;;;;;5051009;28;20460;-66
2021/03/22 13:21:16;;;;;;;1.20;1.00;;;6.90;95.70;;;;;;5048559;28;20490;-66
2021/03/22 13:23:44;;;;;;;1.20;0.90;;;6.90;96.30;;;;;;5050436;28;20463;-66
2021/03/22 13:26:15;;;;;;;1.90;1.40;;;6.80;96.70;;;;;;5048602;28;20452;-65
2021/03/22 13:28:44;;;;;;;1.20;1.00;;;6.70;96.50;;;;;;5050749;28;20520;-65
2021/03/22 13:31:16;;;;;;;1.30;1.30;;;6.80;96.60;;;;;;5048580;28;20453;-65